createdAt,value
2022-08-30T00:01:02.983Z,15.70
2022-08-30T00:03:07.049Z,15.80
2022-08-30T00:05:09.774Z,15.80
2022-08-30T00:07:11.657Z,15.90
2022-08-30T00:09:13.407Z,15.80
2022-08-30T00:11:23.089Z,15.80
2022-08-30T00:13:24.831Z,15.90
2022-08-30T00:15:27.421Z,15.90
2022-08-30T00:17:34.152Z,16.00
2022-08-30T00:19:35.896Z,15.80
2022-08-30T00:21:39.399Z,15.90
2022-08-30T00:23:41.488Z,15.90
2022-08-30T00:25:43.516Z,15.80
2022-08-30T00:27:45.422Z,15.90
2022-08-30T00:29:50.748Z,15.80
2022-08-30T00:31:52.774Z,15.90
2022-08-30T00:33:54.650Z,16.00
2022-08-30T00:35:56.510Z,15.90
2022-08-30T00:37:58.410Z,15.90
2022-08-30T00:40:02.411Z,15.90
2022-08-30T00:42:10.384Z,16.00
2022-08-30T00:44:12.127Z,16.00
2022-08-30T00:46:16.852Z,15.90
2022-08-30T00:48:21.386Z,16.00
2022-08-30T00:50:28.079Z,16.00
2022-08-30T00:52:29.925Z,16.00
2022-08-30T00:54:33.987Z,16.00
2022-08-30T00:56:36.321Z,16.00
2022-08-30T00:58:43.032Z,16.10
2022-08-30T01:00:47.138Z,16.10
2022-08-30T01:02:48.948Z,16.20
2022-08-30T01:04:55.401Z,16.10
2022-08-30T01:06:57.640Z,16.10
2022-08-30T01:09:00.547Z,16.10
2022-08-30T01:11:04.047Z,16.10
2022-08-30T01:13:06.100Z,16.10
2022-08-30T01:15:09.310Z,16.10
2022-08-30T01:17:11.274Z,16.10
2022-08-30T01:19:47.159Z,16.10
2022-08-30T01:22:07.641Z,16.20
2022-08-30T01:24:09.829Z,16.10
2022-08-30T01:26:13.125Z,16.00
2022-08-30T01:28:26.517Z,16.10
2022-08-30T01:30:32.367Z,16.00
2022-08-30T01:32:40.123Z,16.00
2022-08-30T01:34:41.817Z,16.00
2022-08-30T01:36:45.945Z,16.00
2022-08-30T01:38:54.674Z,16.00
2022-08-30T01:41:01.412Z,16.10
2022-08-30T01:43:03.307Z,16.60
2022-08-30T01:45:13.098Z,16.00
2022-08-30T01:47:15.959Z,16.00
2022-08-30T01:49:27.282Z,15.90
2022-08-30T01:51:31.360Z,16.00
2022-08-30T01:53:33.485Z,15.90
2022-08-30T01:55:36.603Z,16.00
2022-08-30T01:57:38.490Z,16.00
2022-08-30T01:59:43.475Z,15.90
2022-08-30T02:01:45.334Z,15.90
2022-08-30T02:03:48.414Z,15.80
2022-08-30T02:05:56.400Z,15.90
2022-08-30T02:07:58.414Z,15.90
2022-08-30T02:10:02.007Z,15.90
2022-08-30T02:12:07.933Z,16.00
2022-08-30T02:14:10.048Z,15.90
2022-08-30T02:16:17.445Z,15.80
2022-08-30T02:18:23.122Z,15.90
2022-08-30T02:20:26.008Z,15.90
2022-08-30T02:22:27.863Z,15.90
2022-08-30T02:24:29.630Z,15.90
2022-08-30T02:26:31.497Z,15.90
2022-08-30T02:28:33.249Z,16.00
2022-08-30T02:30:35.029Z,15.90
2022-08-30T02:32:37.930Z,15.80
2022-08-30T02:34:42.351Z,15.90
2022-08-30T02:36:44.995Z,15.90
2022-08-30T02:38:50.140Z,15.80
2022-08-30T02:40:54.295Z,15.80
2022-08-30T02:42:56.939Z,15.80
2022-08-30T02:45:01.345Z,15.90
2022-08-30T02:47:03.075Z,15.90
2022-08-30T02:51:29.736Z,15.90
2022-08-30T02:53:34.054Z,16.10
2022-08-30T02:55:35.897Z,15.80
2022-08-30T02:57:40.725Z,15.80
2022-08-30T02:59:45.366Z,15.90
2022-08-30T03:01:49.462Z,16.00
2022-08-30T03:03:54.269Z,15.90
2022-08-30T03:05:55.961Z,16.00
2022-08-30T03:08:02.626Z,15.90
2022-08-30T03:10:04.718Z,15.80
2022-08-30T03:12:12.222Z,15.90
2022-08-30T03:14:14.020Z,15.90
2022-08-30T03:16:17.152Z,15.90
2022-08-30T03:18:20.185Z,16.40
2022-08-30T03:20:25.410Z,15.90
2022-08-30T03:22:28.514Z,15.90
2022-08-30T03:24:31.615Z,16.00
2022-08-30T03:26:35.748Z,16.10
2022-08-30T03:28:39.997Z,16.10
2022-08-30T03:30:42.853Z,16.00
2022-08-30T03:32:47.920Z,16.20
2022-08-30T03:34:52.086Z,16.10
2022-08-30T03:36:55.797Z,16.30
2022-08-30T03:38:59.899Z,16.40
2022-08-30T03:41:05.854Z,16.30
2022-08-30T03:43:09.230Z,16.40
2022-08-30T03:45:14.852Z,16.40
2022-08-30T03:47:16.726Z,16.50
2022-08-30T03:49:22.024Z,16.60
2022-08-30T03:51:24.786Z,16.50
2022-08-30T03:53:27.295Z,16.60
2022-08-30T03:55:30.449Z,16.70
2022-08-30T03:57:34.962Z,16.70
2022-08-30T03:59:38.462Z,16.70
2022-08-30T04:01:42.523Z,16.70
2022-08-30T04:03:44.263Z,16.80
2022-08-30T04:05:46.039Z,16.80
2022-08-30T04:07:47.782Z,16.90
2022-08-30T04:09:51.613Z,16.90
2022-08-30T04:11:55.763Z,16.90
2022-08-30T04:14:00.122Z,17.00
2022-08-30T04:16:02.081Z,16.90
2022-08-30T04:18:03.876Z,17.00
2022-08-30T04:20:06.388Z,17.00
2022-08-30T04:22:10.475Z,16.90
2022-08-30T04:24:19.324Z,17.00
2022-08-30T04:26:21.512Z,17.00
2022-08-30T04:28:23.959Z,17.00
2022-08-30T04:30:25.753Z,16.90
2022-08-30T04:32:27.925Z,17.40
2022-08-30T04:34:32.020Z,17.10
2022-08-30T04:36:33.868Z,16.90
2022-08-30T04:38:37.689Z,17.00
2022-08-30T04:40:42.467Z,17.00
2022-08-30T04:42:47.187Z,17.10
2022-08-30T04:44:49.387Z,17.10
2022-08-30T04:46:54.095Z,17.00
2022-08-30T04:48:56.890Z,17.10
2022-08-30T04:51:03.143Z,17.10
2022-08-30T04:53:05.452Z,17.10
2022-08-30T04:55:08.713Z,17.20
2022-08-30T04:57:10.427Z,17.40
2022-08-30T04:59:13.161Z,17.40
2022-08-30T05:01:26.767Z,17.40
2022-08-30T05:03:29.102Z,17.30
2022-08-30T05:05:39.766Z,17.30
2022-08-30T05:07:41.511Z,17.30
2022-08-30T05:09:45.273Z,17.30
2022-08-30T05:11:47.130Z,17.30
2022-08-30T05:13:49.854Z,17.30
2022-08-30T05:15:51.680Z,17.20
2022-08-30T05:17:58.059Z,17.20
2022-08-30T05:20:02.239Z,17.20
2022-08-30T05:22:04.370Z,17.30
2022-08-30T05:24:06.127Z,17.20
2022-08-30T05:26:11.619Z,17.20
2022-08-30T05:28:13.374Z,17.40
2022-08-30T05:30:19.053Z,17.20
2022-08-30T05:32:20.819Z,17.30
2022-08-30T05:34:22.687Z,17.40
2022-08-30T05:36:27.379Z,17.40
2022-08-30T05:38:29.089Z,17.70
2022-08-30T05:40:30.840Z,17.60
2022-08-30T05:42:35.103Z,17.70
2022-08-30T05:44:37.365Z,17.70
2022-08-30T05:46:47.494Z,17.80
2022-08-30T05:48:54.000Z,17.80
2022-08-30T05:51:16.355Z,17.90
2022-08-30T05:53:19.767Z,18.10
2022-08-30T05:55:21.722Z,17.90
2022-08-30T05:57:23.437Z,18.00
2022-08-30T05:59:27.546Z,18.10
2022-08-30T06:01:32.520Z,18.10
2022-08-30T06:03:34.784Z,17.70
2022-08-30T06:05:37.594Z,17.80
2022-08-30T06:07:40.050Z,17.90
2022-08-30T06:09:44.537Z,17.90
2022-08-30T06:11:46.884Z,18.20
2022-08-30T06:13:49.445Z,18.20
2022-08-30T06:15:52.668Z,18.10
2022-08-30T06:17:56.472Z,18.10
2022-08-30T06:19:58.153Z,18.00
2022-08-30T06:22:00.796Z,18.10
2022-08-30T06:24:06.494Z,18.20
2022-08-30T06:26:11.035Z,18.20
2022-08-30T06:28:13.362Z,18.20
2022-08-30T06:30:15.577Z,18.20
2022-08-30T06:32:23.257Z,18.30
2022-08-30T06:34:25.098Z,18.30
2022-08-30T06:36:26.872Z,18.30
2022-08-30T06:38:28.581Z,18.30
2022-08-30T06:40:30.758Z,18.30
2022-08-30T06:42:36.830Z,18.30
2022-08-30T06:44:39.392Z,18.20
2022-08-30T06:46:50.041Z,18.30
2022-08-30T06:48:52.445Z,18.30
2022-08-30T06:50:59.232Z,18.30
2022-08-30T06:53:05.682Z,18.10
2022-08-30T06:55:08.174Z,18.50
2022-08-30T06:57:09.988Z,18.10
2022-08-30T06:59:13.013Z,17.90
2022-08-30T07:01:18.060Z,17.90
2022-08-30T07:03:23.026Z,17.90
2022-08-30T07:05:24.752Z,18.00
2022-08-30T07:07:28.835Z,18.10
2022-08-30T07:11:38.869Z,18.00
2022-08-30T07:13:40.588Z,18.10
2022-08-30T07:15:44.071Z,18.10
2022-08-30T07:18:05.131Z,18.20
2022-08-30T07:20:07.337Z,17.80
2022-08-30T07:22:09.014Z,17.60
2022-08-30T07:24:12.023Z,17.70
2022-08-30T07:26:16.793Z,17.80
2022-08-30T07:28:18.491Z,17.70
2022-08-30T07:30:24.983Z,17.50
2022-08-30T07:32:26.753Z,17.40
2022-08-30T07:34:28.655Z,17.30
2022-08-30T07:36:30.375Z,17.80
2022-08-30T07:38:32.282Z,17.40
2022-08-30T07:40:34.092Z,17.50
2022-08-30T07:42:35.990Z,17.40
2022-08-30T07:44:37.745Z,17.50
2022-08-30T07:46:42.389Z,18.00
2022-08-30T07:48:45.691Z,17.50
2022-08-30T07:50:48.466Z,17.60
2022-08-30T07:52:50.257Z,17.50
2022-08-30T07:54:58.059Z,17.20
2022-08-30T07:56:59.744Z,16.90
2022-08-30T07:59:01.461Z,16.80
2022-08-30T08:01:04.615Z,16.90
2022-08-30T08:03:09.867Z,16.90
2022-08-30T08:05:16.443Z,16.90
2022-08-30T08:07:22.034Z,16.70
2022-08-30T08:09:24.355Z,16.80
2022-08-30T08:11:29.395Z,16.90
2022-08-30T08:13:37.851Z,16.60
2022-08-30T08:15:55.300Z,16.60
2022-08-30T08:17:59.123Z,16.40
2022-08-30T08:20:00.849Z,16.30
2022-08-30T08:22:19.898Z,16.30
2022-08-30T08:24:24.135Z,16.20
2022-08-30T08:26:25.902Z,16.10
2022-08-30T08:28:27.766Z,16.10
2022-08-30T08:30:33.344Z,16.00
2022-08-30T08:32:35.124Z,16.00
2022-08-30T08:34:37.327Z,16.00
2022-08-30T08:36:40.310Z,15.80
2022-08-30T08:38:42.201Z,15.80
2022-08-30T08:41:05.355Z,15.60
2022-08-30T08:43:21.499Z,15.40
2022-08-30T08:45:37.747Z,15.20
2022-08-30T08:48:05.056Z,15.10
2022-08-30T08:50:21.019Z,15.20
2022-08-30T08:52:49.094Z,15.00
2022-08-30T08:54:59.291Z,14.80
2022-08-30T08:57:01.159Z,14.80
2022-08-30T08:59:04.529Z,14.70
2022-08-30T09:01:07.906Z,14.50
2022-08-30T09:03:15.509Z,14.50
2022-08-30T09:05:25.921Z,14.40
2022-08-30T09:07:34.324Z,14.30
2022-08-30T09:09:40.225Z,14.10
2022-08-30T09:11:44.481Z,14.00
2022-08-30T09:13:46.310Z,13.90
2022-08-30T09:15:54.634Z,14.10
2022-08-30T09:18:01.421Z,13.80
2022-08-30T09:20:05.177Z,13.80
2022-08-30T09:22:15.622Z,14.00
2022-08-30T09:24:17.324Z,13.70
2022-08-30T09:26:33.477Z,13.60
2022-08-30T09:31:34.040Z,13.40
2022-08-30T09:33:37.088Z,13.00
2022-08-30T09:35:46.775Z,13.00
2022-08-30T09:38:05.048Z,13.00
2022-08-30T09:40:14.524Z,12.80
2022-08-30T09:42:24.932Z,12.50
2022-08-30T09:44:31.475Z,12.70
2022-08-30T09:46:33.498Z,12.50
2022-08-30T09:48:40.594Z,12.50
2022-08-30T09:50:43.109Z,12.40
2022-08-30T09:52:55.053Z,12.00
2022-08-30T09:55:22.115Z,12.00
2022-08-30T09:57:40.054Z,11.40
2022-08-30T09:59:57.416Z,11.40
2022-08-30T10:02:28.293Z,11.50
2022-08-30T10:04:44.548Z,11.30
2022-08-30T10:07:01.062Z,11.30
2022-08-30T10:09:05.785Z,10.50
2022-08-30T10:11:27.933Z,10.40
2022-08-30T10:13:49.600Z,10.40
2022-08-30T10:16:01.122Z,9.90
2022-08-30T10:18:26.087Z,10.10
2022-08-30T10:20:42.742Z,10.40
2022-08-30T10:22:58.637Z,9.80
2022-08-30T10:25:16.099Z,9.40
2022-08-30T10:27:22.254Z,9.60
2022-08-30T10:29:30.598Z,9.70
2022-08-30T10:31:57.840Z,9.50
2022-08-30T10:34:06.420Z,9.30
2022-08-30T10:36:13.689Z,9.10
2022-08-30T10:38:26.574Z,9.40
2022-08-30T10:40:56.428Z,9.40
2022-08-30T10:43:02.754Z,8.70
2022-08-30T10:45:12.519Z,8.60
2022-08-30T10:47:39.168Z,8.30
2022-08-30T10:49:45.509Z,8.80
2022-08-30T10:52:11.616Z,8.40
2022-08-30T10:54:19.376Z,8.10
2022-08-30T10:56:24.495Z,8.00
2022-08-30T10:58:31.517Z,7.80
2022-08-30T11:00:51.290Z,7.40
2022-08-30T11:03:11.602Z,8.00
2022-08-30T11:05:50.111Z,8.10
2022-08-30T11:08:22.085Z,8.00
2022-08-30T11:11:01.643Z,7.10
2022-08-30T11:13:11.268Z,6.90
2022-08-30T11:15:25.219Z,6.00
2022-08-30T11:17:57.414Z,6.20
2022-08-30T11:20:01.901Z,6.10
2022-08-30T11:22:27.679Z,5.60
2022-08-30T11:24:30.269Z,6.10
2022-08-30T11:26:49.932Z,6.10
2022-08-30T11:28:51.815Z,6.00
2022-08-30T11:31:10.621Z,6.00
2022-08-30T11:33:15.357Z,6.20
2022-08-30T11:35:38.718Z,6.20
2022-08-30T11:37:43.154Z,6.30
2022-08-30T11:39:52.931Z,5.00
2022-08-30T11:42:30.159Z,5.20
2022-08-30T11:44:32.802Z,6.00
2022-08-30T11:46:40.033Z,5.30
2022-08-30T11:48:53.553Z,5.50
2022-08-30T11:51:37.788Z,5.20
2022-08-30T11:54:04.567Z,5.70
2022-08-30T11:56:32.949Z,5.90
2022-08-30T11:58:37.491Z,6.50
2022-08-30T12:00:52.629Z,5.90
2022-08-30T12:03:07.494Z,5.90
2022-08-30T12:05:29.661Z,6.50
2022-08-30T12:07:57.276Z,6.00
2022-08-30T12:10:00.884Z,6.50
2022-08-30T12:12:05.653Z,6.60
2022-08-30T12:14:09.613Z,6.00
2022-08-30T12:16:19.959Z,6.00
2022-08-30T12:18:30.197Z,5.80
2022-08-30T12:20:43.952Z,5.00
2022-08-30T12:22:45.728Z,5.40
2022-08-30T12:24:51.703Z,5.40
2022-08-30T12:26:53.944Z,5.50
2022-08-30T12:29:10.705Z,5.90
2022-08-30T12:31:28.156Z,6.00
2022-08-30T12:33:41.342Z,6.00
2022-08-30T12:35:44.263Z,6.00
2022-08-30T12:37:57.513Z,5.80
2022-08-30T12:40:10.162Z,4.90
2022-08-30T12:42:21.099Z,4.80
2022-08-30T12:44:27.930Z,4.70
2022-08-30T12:46:33.492Z,5.20
2022-08-30T12:48:38.838Z,5.40
2022-08-30T12:50:59.102Z,4.70
2022-08-30T12:53:11.673Z,4.70
2022-08-30T12:55:19.647Z,4.60
2022-08-30T12:57:42.278Z,4.70
2022-08-30T12:59:54.215Z,5.00
2022-08-30T13:02:08.307Z,5.10
2022-08-30T13:04:27.453Z,5.30
2022-08-30T13:06:58.341Z,5.20
2022-08-30T13:09:00.489Z,5.90
2022-08-30T13:11:11.909Z,5.20
2022-08-30T13:13:28.769Z,4.50
2022-08-30T13:15:34.265Z,5.10
2022-08-30T13:17:38.607Z,4.70
2022-08-30T13:19:43.101Z,4.90
2022-08-30T13:21:58.260Z,4.80
2022-08-30T13:24:02.510Z,4.50
2022-08-30T13:26:07.640Z,4.30
2022-08-30T13:28:09.829Z,4.70
2022-08-30T13:30:18.910Z,4.60
2022-08-30T13:32:21.731Z,4.60
2022-08-30T13:34:23.717Z,4.60
2022-08-30T13:36:31.017Z,4.40
2022-08-30T13:38:32.825Z,3.80
2022-08-30T13:40:35.315Z,4.00
2022-08-30T13:42:38.139Z,3.60
2022-08-30T13:44:41.555Z,3.70
2022-08-30T13:46:54.344Z,3.60
2022-08-30T13:51:38.605Z,3.60
2022-08-30T13:53:57.250Z,3.90
2022-08-30T13:56:00.272Z,4.00
2022-08-30T13:58:02.052Z,4.00
2022-08-30T14:00:06.429Z,4.60
2022-08-30T14:02:13.999Z,3.60
2022-08-30T14:04:16.234Z,4.10
2022-08-30T14:06:32.778Z,3.90
2022-08-30T14:08:47.843Z,4.50
2022-08-30T14:10:55.024Z,3.90
2022-08-30T14:13:04.833Z,3.80
2022-08-30T14:15:10.424Z,3.50
2022-08-30T14:17:14.616Z,3.20
2022-08-30T14:19:17.027Z,3.10
2022-08-30T14:21:21.397Z,3.30
2022-08-30T14:23:27.431Z,3.20
2022-08-30T14:25:29.243Z,3.00
2022-08-30T14:27:31.100Z,2.60
2022-08-30T14:29:33.500Z,2.80
2022-08-30T14:31:38.522Z,2.80
2022-08-30T14:33:40.352Z,3.00
2022-08-30T14:35:42.097Z,2.50
2022-08-30T14:37:44.617Z,2.70
2022-08-30T14:39:46.898Z,2.50
2022-08-30T14:41:55.425Z,2.40
2022-08-30T14:43:59.433Z,2.40
2022-08-30T14:46:01.873Z,2.20
2022-08-30T14:48:09.303Z,2.20
2022-08-30T14:50:16.420Z,2.20
2022-08-30T14:52:18.278Z,2.30
2022-08-30T14:54:28.370Z,2.10
2022-08-30T14:56:30.342Z,1.90
2022-08-30T14:58:32.149Z,1.90
2022-08-30T15:00:37.913Z,1.90
2022-08-30T15:02:40.615Z,2.20
2022-08-30T15:04:45.227Z,2.70
2022-08-30T15:06:52.372Z,2.10
2022-08-30T15:08:55.472Z,2.20
2022-08-30T15:10:58.602Z,2.40
2022-08-30T15:13:04.997Z,2.20
2022-08-30T15:15:07.649Z,2.30
2022-08-30T15:17:12.860Z,2.50
2022-08-30T15:19:14.592Z,2.60
2022-08-30T15:21:32.566Z,2.60
2022-08-30T15:23:34.393Z,2.60
2022-08-30T15:25:39.469Z,2.70
2022-08-30T15:27:44.024Z,2.60
2022-08-30T15:29:48.675Z,2.60
2022-08-30T15:31:52.736Z,3.20
2022-08-30T15:33:54.792Z,2.60
2022-08-30T15:36:05.389Z,2.60
2022-08-30T15:38:07.249Z,2.60
2022-08-30T15:40:09.848Z,2.80
2022-08-30T15:42:13.486Z,3.00
2022-08-30T15:44:18.093Z,2.90
2022-08-30T15:46:29.745Z,3.10
2022-08-30T15:48:31.905Z,3.10
2022-08-30T15:50:35.709Z,3.00
2022-08-30T15:52:37.648Z,3.10
2022-08-30T15:54:45.448Z,2.80
2022-08-30T15:56:50.075Z,3.10
2022-08-30T15:58:53.950Z,3.00
2022-08-30T16:00:56.722Z,2.90
2022-08-30T16:02:58.433Z,2.80
2022-08-30T16:05:00.197Z,2.90
2022-08-30T16:07:06.302Z,3.00
2022-08-30T16:09:09.905Z,3.20
2022-08-30T16:11:13.519Z,3.30
2022-08-30T16:13:15.584Z,3.20
2022-08-30T16:15:17.501Z,3.30
2022-08-30T16:17:19.307Z,3.40
2022-08-30T16:19:21.129Z,3.40
2022-08-30T16:21:26.579Z,3.30
2022-08-30T16:23:28.315Z,3.30
2022-08-30T16:25:40.108Z,3.40
2022-08-30T16:27:43.081Z,3.60
2022-08-30T16:29:45.033Z,3.70
2022-08-30T16:31:49.084Z,3.80
2022-08-30T16:33:52.789Z,3.70
2022-08-30T16:35:56.989Z,3.70
2022-08-30T16:37:58.686Z,3.80
2022-08-30T16:40:04.166Z,3.90
2022-08-30T16:42:08.940Z,4.10
2022-08-30T16:44:11.489Z,4.20
2022-08-30T16:46:17.024Z,4.20
2022-08-30T16:48:19.025Z,4.20
2022-08-30T16:50:23.261Z,4.50
2022-08-30T16:52:24.960Z,4.50
2022-08-30T16:54:29.265Z,4.50
2022-08-30T16:56:34.829Z,5.10
2022-08-30T16:58:37.074Z,4.60
2022-08-30T17:00:41.576Z,4.70
2022-08-30T17:02:54.269Z,5.20
2022-08-30T17:04:56.148Z,4.80
2022-08-30T17:06:57.839Z,4.80
2022-08-30T17:09:00.623Z,4.90
2022-08-30T17:11:03.189Z,5.20
2022-08-30T17:13:05.327Z,5.30
2022-08-30T17:15:07.879Z,5.40
2022-08-30T17:17:09.622Z,5.30
2022-08-30T17:19:14.833Z,5.30
2022-08-30T17:21:20.057Z,5.30
2022-08-30T17:23:23.609Z,5.20
2022-08-30T17:25:28.671Z,5.10
2022-08-30T17:27:36.666Z,5.10
2022-08-30T17:29:38.875Z,5.20
2022-08-30T17:31:42.826Z,5.40
2022-08-30T17:33:45.541Z,5.60
2022-08-30T17:35:47.940Z,5.70
2022-08-30T17:37:51.221Z,6.00
2022-08-30T17:39:53.444Z,6.10
2022-08-30T17:41:55.710Z,6.30
2022-08-30T17:44:00.732Z,6.40
2022-08-30T17:46:10.655Z,6.40
2022-08-30T17:48:13.655Z,6.60
2022-08-30T17:50:15.777Z,6.50
2022-08-30T17:52:21.317Z,6.50
2022-08-30T17:54:25.962Z,6.60
2022-08-30T17:56:35.304Z,7.20
2022-08-30T17:58:37.429Z,6.60
2022-08-30T18:00:40.395Z,6.70
2022-08-30T18:02:44.251Z,6.70
2022-08-30T18:04:48.189Z,6.80
2022-08-30T18:06:50.389Z,6.90
2022-08-30T18:08:53.550Z,6.80
2022-08-30T18:10:55.637Z,6.80
2022-08-30T18:12:58.733Z,6.80
2022-08-30T18:15:01.103Z,6.80
2022-08-30T18:17:04.065Z,6.90
2022-08-30T18:19:09.541Z,6.90
2022-08-30T18:21:16.332Z,7.00
2022-08-30T18:23:19.606Z,7.00
2022-08-30T18:25:28.165Z,7.10
2022-08-30T18:27:33.860Z,7.10
2022-08-30T18:29:41.924Z,7.30
2022-08-30T18:31:44.683Z,7.30
2022-08-30T18:33:47.857Z,7.30
2022-08-30T18:35:50.452Z,7.30
2022-08-30T18:37:52.842Z,7.40
2022-08-30T18:39:54.538Z,7.40
2022-08-30T18:41:56.939Z,7.60
2022-08-30T18:44:26.130Z,7.50
2022-08-30T18:46:21.393Z,7.90
2022-08-30T18:48:23.605Z,7.60
2022-08-30T18:50:29.168Z,7.80
2022-08-30T18:52:33.753Z,7.80
2022-08-30T18:54:42.183Z,7.80
2022-08-30T18:56:44.957Z,8.00
2022-08-30T18:58:47.624Z,7.90
2022-08-30T19:00:49.598Z,8.10
2022-08-30T19:02:52.637Z,8.00
2022-08-30T19:04:54.695Z,8.20
2022-08-30T19:06:59.971Z,8.10
2022-08-30T19:09:04.057Z,8.20
2022-08-30T19:11:11.302Z,8.30
2022-08-30T19:13:16.009Z,8.30
2022-08-30T19:15:20.415Z,8.30
2022-08-30T19:17:22.132Z,8.30
2022-08-30T19:19:24.061Z,8.40
2022-08-30T19:21:28.309Z,8.30
2022-08-30T19:23:34.385Z,8.30
2022-08-30T19:25:36.233Z,8.40
2022-08-30T19:27:40.101Z,8.30
2022-08-30T19:29:42.715Z,8.30
2022-08-30T19:31:47.757Z,8.30
2022-08-30T19:33:49.491Z,8.30
2022-08-30T19:35:53.814Z,8.30
2022-08-30T19:37:55.604Z,8.20
2022-08-30T19:40:00.737Z,8.30
2022-08-30T19:42:04.852Z,8.30
2022-08-30T19:44:08.794Z,8.30
2022-08-30T19:46:14.560Z,8.30
2022-08-30T19:48:16.274Z,8.30
2022-08-30T19:50:23.370Z,8.30
2022-08-30T19:52:32.765Z,8.20
2022-08-30T19:54:34.463Z,8.70
2022-08-30T19:56:38.597Z,8.20
2022-08-30T19:58:41.374Z,8.20
2022-08-30T20:00:54.371Z,8.20
2022-08-30T20:02:58.054Z,8.40
2022-08-30T20:05:05.846Z,8.50
2022-08-30T20:07:07.871Z,8.60
2022-08-30T20:09:10.603Z,8.70
2022-08-30T20:11:17.192Z,8.60
2022-08-30T20:13:20.057Z,8.80
2022-08-30T20:15:27.952Z,8.80
2022-08-30T20:17:47.574Z,8.90
2022-08-30T20:20:01.457Z,8.90
2022-08-30T20:22:08.228Z,8.90
2022-08-30T20:24:10.358Z,8.90
2022-08-30T20:26:13.063Z,8.90
2022-08-30T20:28:14.758Z,8.90
2022-08-30T20:30:17.804Z,8.90
2022-08-30T20:32:19.601Z,9.00
2022-08-30T20:34:27.290Z,9.00
2022-08-30T20:36:29.103Z,9.10
2022-08-30T20:38:30.942Z,9.10
2022-08-30T20:40:38.368Z,9.00
2022-08-30T20:42:43.591Z,9.10
2022-08-30T20:44:45.734Z,9.10
2022-08-30T20:46:49.466Z,9.10
2022-08-30T20:48:51.235Z,9.20
2022-08-30T20:50:52.972Z,9.10
2022-08-30T20:52:54.769Z,9.20
2022-08-30T20:54:56.510Z,9.30
2022-08-30T20:56:58.493Z,9.20
2022-08-30T20:59:02.566Z,9.30
2022-08-30T21:01:08.782Z,9.30
2022-08-30T21:03:26.346Z,9.40
2022-08-30T21:05:29.663Z,9.40
2022-08-30T21:07:31.673Z,9.50
2022-08-30T21:09:33.459Z,9.50
2022-08-30T21:11:36.762Z,9.70
2022-08-30T21:13:38.705Z,9.80
2022-08-30T21:15:45.641Z,9.80
2022-08-30T21:17:47.936Z,9.80
2022-08-30T21:19:52.932Z,9.80
2022-08-30T21:21:54.799Z,9.70
2022-08-30T21:24:09.321Z,9.70
2022-08-30T21:26:11.561Z,9.80
2022-08-30T21:28:13.463Z,9.80
2022-08-30T21:30:17.534Z,9.80
2022-08-30T21:32:19.333Z,9.90
2022-08-30T21:34:21.477Z,9.90
2022-08-30T21:36:43.846Z,10.10
2022-08-30T21:38:45.626Z,10.00
2022-08-30T21:40:48.371Z,10.10
2022-08-30T21:42:50.441Z,10.10
2022-08-30T21:44:52.236Z,10.20
2022-08-30T21:46:54.529Z,10.20
2022-08-30T21:48:58.404Z,10.20
2022-08-30T21:51:00.333Z,10.30
2022-08-30T21:53:02.144Z,10.30
2022-08-30T21:55:04.920Z,10.40
2022-08-30T21:57:07.604Z,10.40
2022-08-30T21:59:10.774Z,10.40
2022-08-30T22:01:15.787Z,10.50
2022-08-30T22:03:17.869Z,10.60
2022-08-30T22:05:20.001Z,10.60
2022-08-30T22:07:21.817Z,10.60
2022-08-30T22:09:25.327Z,10.60
2022-08-30T22:11:30.992Z,10.70
2022-08-30T22:13:32.768Z,10.70
2022-08-30T22:15:34.883Z,10.70
2022-08-30T22:17:39.047Z,10.90
2022-08-30T22:19:40.799Z,10.90
2022-08-30T22:21:42.917Z,10.70
2022-08-30T22:23:45.301Z,10.70
2022-08-30T22:25:47.064Z,10.80
2022-08-30T22:27:48.861Z,10.90
2022-08-30T22:29:50.614Z,11.00
2022-08-30T22:31:52.419Z,10.90
2022-08-30T22:33:55.042Z,11.00
2022-08-30T22:35:57.147Z,11.00
2022-08-30T22:37:59.077Z,11.00
2022-08-30T22:40:00.847Z,11.10
2022-08-30T22:42:02.798Z,11.00
2022-08-30T22:44:05.037Z,11.00
2022-08-30T22:46:07.579Z,11.30
2022-08-30T22:48:09.805Z,11.20
2022-08-30T22:50:13.116Z,11.10
2022-08-30T22:52:14.994Z,11.10
2022-08-30T22:54:17.438Z,11.20
2022-08-30T22:56:25.237Z,11.30
2022-08-30T22:58:27.051Z,11.30
2022-08-30T23:00:28.910Z,11.30
2022-08-30T23:02:30.948Z,11.50
2022-08-30T23:04:32.770Z,11.40
2022-08-30T23:06:35.125Z,11.50
2022-08-30T23:08:36.842Z,11.50
2022-08-30T23:10:38.686Z,11.60
2022-08-30T23:12:41.065Z,11.50
2022-08-30T23:14:42.835Z,11.70
2022-08-30T23:16:45.087Z,11.90
2022-08-30T23:18:47.969Z,11.90
2022-08-30T23:20:49.786Z,12.10
2022-08-30T23:23:00.546Z,12.10
2022-08-30T23:25:20.945Z,11.90
2022-08-30T23:27:44.812Z,12.00
2022-08-30T23:30:05.006Z,12.00
2022-08-30T23:32:25.376Z,12.00
2022-08-30T23:34:45.849Z,12.00
2022-08-30T23:37:06.279Z,12.00
2022-08-30T23:39:26.874Z,11.90
2022-08-30T23:41:47.320Z,12.00
2022-08-30T23:44:07.602Z,12.10
2022-08-30T23:46:28.025Z,12.30
2022-08-30T23:48:52.153Z,12.70
2022-08-30T23:51:21.868Z,12.70
2022-08-30T23:53:43.842Z,12.90
2022-08-30T23:56:04.492Z,12.80
2022-08-30T23:58:25.152Z,13.10
